Time;durP1;ratioP1;P1;durP2;ratioP2;P2;SDS_P1;SDS_P2;PMS_P1;PMS_P2;Temp;Humidity;BMP_temperature;BMP_pressure;BME280_temperature;BME280_humidity;BME280_pressure;Samples;Min_cycle;Max_cycle;Signal;HPM_P1;HPM_P2
2023/04/17 00:00:39;;;;;;;52.83;32.80;;;8.30;99.90;;;;;;4895733;29;20434;-92
2023/04/17 00:03:04;;;;;;;47.88;31.10;;;8.30;99.90;;;;;;4895932;29;20425;-92
2023/04/17 00:05:30;;;;;;;49.00;30.88;;;8.00;99.90;;;;;;4895246;29;20457;-92
2023/04/17 00:07:59;;;;;;;41.75;30.70;;;8.80;99.90;;;;;;4895866;29;20874;-91
2023/04/17 00:10:25;;;;;;;48.40;31.47;;;7.80;99.90;;;;;;4895753;29;20433;-92
2023/04/17 00:12:50;;;;;;;46.73;30.20;;;8.30;99.90;;;;;;4895779;29;20820;-92
2023/04/17 00:15:16;;;;;;;45.42;30.27;;;8.00;99.90;;;;;;4895418;29;20420;-92
2023/04/17 00:17:41;;;;;;;51.33;31.73;;;8.10;99.90;;;;;;4895486;29;20435;-93
2023/04/17 00:20:11;;;;;;;50.27;32.97;;;8.00;99.90;;;;;;4895825;29;20763;-92
2023/04/17 00:22:37;;;;;;;49.20;31.63;;;8.00;99.90;;;;;;4895571;29;20413;-91
2023/04/17 00:25:03;;;;;;;46.30;31.58;;;8.30;99.90;;;;;;4880023;29;20907;-91
2023/04/17 00:27:29;;;;;;;43.53;30.30;;;8.10;99.90;;;;;;4897308;29;20494;-91
2023/04/17 00:29:55;;;;;;;40.75;28.25;;;8.30;99.90;;;;;;4898373;29;20530;-92
2023/04/17 00:32:20;;;;;;;44.83;30.27;;;8.10;99.90;;;;;;4897750;29;20420;-92
2023/04/17 00:34:46;;;;;;;45.83;29.67;;;8.10;99.90;;;;;;4899066;29;20419;-91
2023/04/17 00:37:12;;;;;;;49.53;31.55;;;8.20;99.90;;;;;;4898219;29;20479;-91
2023/04/17 00:39:37;;;;;;;52.35;32.78;;;8.10;99.90;;;;;;4898333;29;20786;-92
2023/04/17 00:42:03;;;;;;;52.20;32.97;;;8.10;99.90;;;;;;4899011;29;20422;-91
2023/04/17 00:44:29;;;;;;;48.23;31.60;;;8.00;99.90;;;;;;4898375;29;20460;-92
2023/04/17 00:46:55;;;;;;;53.95;33.47;;;8.00;99.90;;;;;;4898706;29;20458;-91
2023/04/17 00:49:22;;;;;;;53.03;32.90;;;8.10;99.90;;;;;;4897935;29;20404;-92
2023/04/17 00:51:49;;;;;;;41.60;29.50;;;7.90;99.90;;;;;;4897605;29;20422;-90
2023/04/17 00:54:15;;;;;;;46.15;31.05;;;7.80;99.90;;;;;;4897390;29;20502;-92
2023/04/17 00:56:42;;;;;;;46.00;31.30;;;7.90;99.90;;;;;;4898421;29;20418;-91
2023/04/17 00:59:11;;;;;;;44.35;30.52;;;7.90;99.90;;;;;;4897736;29;20435;-91
2023/04/17 01:01:37;;;;;;;48.23;31.07;;;7.80;99.90;;;;;;4898491;29;20412;-91
2023/04/17 01:04:06;;;;;;;44.87;31.00;;;8.20;99.90;;;;;;4904994;29;21031;-92
2023/04/17 01:06:32;;;;;;;51.10;32.05;;;8.00;99.90;;;;;;4903499;29;20411;-90
2023/04/17 01:08:58;;;;;;;44.65;29.95;;;8.00;99.90;;;;;;4904379;29;20506;-91
2023/04/17 01:11:24;;;;;;;44.57;30.63;;;8.00;99.90;;;;;;4903472;29;20415;-92
2023/04/17 01:13:50;;;;;;;39.17;28.70;;;8.00;99.90;;;;;;4903785;29;20429;-91
2023/04/17 01:16:16;;;;;;;42.10;29.80;;;8.10;99.90;;;;;;4903888;29;20468;-92
2023/04/17 01:18:42;;;;;;;44.95;31.52;;;8.10;99.90;;;;;;4903697;29;20458;-92
2023/04/17 01:21:08;;;;;;;48.15;32.15;;;8.00;99.90;;;;;;4904485;29;20415;-91
2023/04/17 01:23:51;;;;;;;46.63;31.70;;;8.20;99.90;;;;;;4903505;29;20419;-92
2023/04/17 01:26:19;;;;;;;41.80;30.33;;;8.00;99.90;;;;;;4904239;29;20960;-92
2023/04/17 01:28:53;;;;;;;44.58;31.23;;;8.00;99.90;;;;;;4903405;29;20414;-91
2023/04/17 01:31:20;;;;;;;47.40;32.03;;;8.30;99.90;;;;;;4904109;29;20423;-90
2023/04/17 01:33:46;;;;;;;49.43;32.33;;;8.10;99.90;;;;;;4904584;29;20416;-93
2023/04/17 01:36:12;;;;;;;52.78;33.60;;;8.50;99.90;;;;;;4903869;29;20419;-92
2023/04/17 01:38:38;;;;;;;54.92;34.10;;;8.20;99.90;;;;;;4887648;29;20448;-92
2023/04/17 01:41:08;;;;;;;54.35;34.63;;;8.10;99.90;;;;;;4884033;29;20420;-92
2023/04/17 01:43:42;;;;;;;50.45;32.70;;;8.10;99.90;;;;;;4884952;29;20937;-92
2023/04/17 01:46:09;;;;;;;50.58;33.17;;;8.50;99.90;;;;;;4883853;29;20961;-92
2023/04/17 01:48:38;;;;;;;57.10;34.73;;;8.40;99.90;;;;;;4900799;29;20415;-91
2023/04/17 01:51:04;;;;;;;55.90;33.95;;;8.10;99.90;;;;;;4884531;29;20480;-92
2023/04/17 01:53:31;;;;;;;51.90;33.75;;;8.00;99.90;;;;;;4884452;29;20425;-91
2023/04/17 01:55:56;;;;;;;52.90;33.00;;;8.00;99.90;;;;;;4881450;29;20422;-92
2023/04/17 01:58:22;;;;;;;53.83;31.63;;;8.10;99.90;;;;;;4865545;29;20447;-91
2023/04/17 02:00:48;;;;;;;46.20;30.77;;;8.00;99.90;;;;;;4867145;29;20414;-92
2023/04/17 02:03:15;;;;;;;50.40;30.88;;;8.00;99.90;;;;;;4865840;29;20762;-93
2023/04/17 02:05:45;;;;;;;49.08;31.42;;;8.00;99.90;;;;;;4866547;29;20415;-91
2023/04/17 02:08:10;;;;;;;53.63;30.52;;;8.10;99.90;;;;;;4866005;29;20418;-91
2023/04/17 02:10:36;;;;;;;56.83;32.53;;;8.10;99.90;;;;;;4866541;29;20911;-92
2023/04/17 02:13:01;;;;;;;60.97;33.40;;;8.10;99.90;;;;;;4866013;29;20868;-91
2023/04/17 02:15:27;;;;;;;65.82;32.95;;;8.10;99.90;;;;;;4862302;29;20806;-92
2023/04/17 02:17:53;;;;;;;67.73;34.37;;;8.10;99.90;;;;;;4863596;29;20951;-90
2023/04/17 02:20:18;;;;;;;63.63;32.77;;;8.00;99.90;;;;;;4862604;29;20418;-91
2023/04/17 02:22:44;;;;;;;66.28;33.92;;;7.80;99.90;;;;;;4862060;29;20419;-90
2023/04/17 02:25:10;;;;;;;67.73;35.37;;;7.90;99.90;;;;;;4872118;29;20413;-91
2023/04/17 02:27:35;;;;;;;65.73;35.33;;;7.80;99.90;;;;;;4882670;29;20430;-91
2023/04/17 02:30:02;;;;;;;67.30;34.38;;;7.80;99.90;;;;;;4881654;29;20414;-91
2023/04/17 02:32:28;;;;;;;61.20;33.95;;;7.80;99.90;;;;;;4881321;29;20421;-93
2023/04/17 02:34:55;;;;;;;60.13;35.03;;;7.80;99.90;;;;;;4882095;29;20433;-91
2023/04/17 02:37:20;;;;;;;44.60;30.15;;;7.90;99.90;;;;;;4881377;29;20853;-91
2023/04/17 02:39:46;;;;;;;54.05;32.85;;;7.90;99.90;;;;;;4881614;29;20517;-92
2023/04/17 02:42:12;;;;;;;62.03;33.83;;;7.80;99.90;;;;;;4881088;29;20421;-92
2023/04/17 02:44:38;;;;;;;57.03;32.33;;;7.90;99.90;;;;;;4881597;29;20783;-91
2023/04/17 02:47:05;;;;;;;61.67;33.55;;;7.60;99.90;;;;;;4880870;29;20481;-91
2023/04/17 02:49:30;;;;;;;58.60;33.30;;;8.00;99.90;;;;;;4881323;29;20420;-92
2023/04/17 02:51:56;;;;;;;60.23;33.93;;;8.10;99.90;;;;;;4881602;29;20934;-90
2023/04/17 02:54:22;;;;;;;59.50;33.22;;;8.00;99.90;;;;;;4881518;29;20508;-93
2023/04/17 02:56:49;;;;;;;61.15;34.67;;;8.10;99.90;;;;;;4881989;29;20953;-91
2023/04/17 02:59:15;;;;;;;100.22;36.38;;;8.90;99.90;;;;;;4880117;29;20440;-91
2023/04/17 03:01:41;;;;;;;73.07;35.38;;;8.10;99.90;;;;;;4881695;29;20421;-93
2023/04/17 03:04:07;;;;;;;75.22;35.38;;;8.00;99.90;;;;;;4880939;29;20418;-92
2023/04/17 03:06:33;;;;;;;68.63;35.88;;;7.90;99.90;;;;;;4881185;29;20421;-91
2023/04/17 03:08:58;;;;;;;153.43;40.92;;;8.00;99.90;;;;;;4881108;29;20413;-91
2023/04/17 03:11:24;;;;;;;86.63;36.93;;;7.90;99.90;;;;;;4880935;29;20428;-92
2023/04/17 03:13:49;;;;;;;76.93;35.50;;;7.90;99.90;;;;;;4881272;29;20417;-91
2023/04/17 03:16:15;;;;;;;71.00;34.30;;;7.60;99.90;;;;;;4880686;29;20568;-92
2023/04/17 03:18:41;;;;;;;81.47;36.23;;;7.90;99.90;;;;;;4881112;29;20636;-92
2023/04/17 03:21:07;;;;;;;106.07;36.25;;;8.10;99.90;;;;;;4879796;29;20425;-91
2023/04/17 03:23:33;;;;;;;130.18;36.13;;;8.20;99.90;;;;;;4880744;29;20425;-92
2023/04/17 03:25:59;;;;;;;65.32;33.30;;;8.20;99.90;;;;;;4880220;29;20421;-92
2023/04/17 03:28:24;;;;;;;117.30;32.95;;;8.00;99.90;;;;;;4881013;29;20417;-92
2023/04/17 03:30:50;;;;;;;162.93;33.92;;;8.10;99.90;;;;;;4880787;29;20428;-92
2023/04/17 03:33:17;;;;;;;282.17;38.22;;;8.20;99.90;;;;;;4879858;29;20405;-91
2023/04/17 03:35:45;;;;;;;178.50;38.95;;;8.10;99.90;;;;;;4880958;29;20421;-91
2023/04/17 03:38:10;;;;;;;239.65;37.60;;;8.00;99.90;;;;;;4879967;29;20510;-91
2023/04/17 03:40:36;;;;;;;153.07;37.40;;;7.90;99.90;;;;;;4880761;29;20827;-92
2023/04/17 03:43:02;;;;;;;107.10;36.58;;;7.70;99.90;;;;;;4879744;29;20469;-91
2023/04/17 03:45:28;;;;;;;93.90;34.80;;;7.70;99.90;;;;;;4880885;29;20444;-93
2023/04/17 03:47:53;;;;;;;99.07;31.53;;;7.70;99.90;;;;;;4879628;29;21037;-91
2023/04/17 03:50:19;;;;;;;100.78;33.78;;;7.70;99.90;;;;;;4880191;29;20398;-92
2023/04/17 03:52:45;;;;;;;61.83;30.00;;;7.80;99.90;;;;;;4879932;29;20434;-92
2023/04/17 03:55:11;;;;;;;65.70;28.60;;;7.70;99.90;;;;;;4878527;29;20445;-92
2023/04/17 03:57:36;;;;;;;66.80;30.83;;;7.70;99.90;;;;;;4879366;29;20420;-92
2023/04/17 04:00:05;;;;;;;155.75;31.52;;;7.80;99.90;;;;;;4878069;29;20862;-91
2023/04/17 04:02:31;;;;;;;145.20;32.15;;;7.80;99.90;;;;;;4880021;29;20417;-92
2023/04/17 04:04:57;;;;;;;132.40;32.13;;;7.90;99.90;;;;;;4879497;29;20764;-91
2023/04/17 04:07:22;;;;;;;265.30;35.30;;;7.80;99.90;;;;;;4879938;29;20409;-91
2023/04/17 04:09:48;;;;;;;117.23;32.33;;;7.70;99.90;;;;;;4880468;29;20424;-91
2023/04/17 04:12:14;;;;;;;172.90;32.97;;;7.90;99.90;;;;;;4879779;29;20901;-92
2023/04/17 04:14:39;;;;;;;100.85;31.75;;;7.70;99.90;;;;;;4880480;29;20416;-92
2023/04/17 04:17:05;;;;;;;63.23;30.53;;;8.10;99.90;;;;;;4879291;29;20431;-92
2023/04/17 04:19:31;;;;;;;89.10;30.20;;;7.80;99.90;;;;;;4879879;29;20512;-93
2023/04/17 04:21:57;;;;;;;95.07;30.40;;;8.20;99.90;;;;;;4879614;29;20827;-92
2023/04/17 04:24:24;;;;;;;66.05;30.63;;;7.90;99.90;;;;;;4879812;29;20447;-92
2023/04/17 04:26:50;;;;;;;164.48;32.25;;;8.10;99.90;;;;;;4879385;29;20432;-91
2023/04/17 04:29:16;;;;;;;194.65;33.70;;;7.80;99.90;;;;;;4879893;29;20413;-92
2023/04/17 04:31:45;;;;;;;199.47;34.27;;;7.80;99.90;;;;;;4879913;29;20437;-92
2023/04/17 04:34:12;;;;;;;240.18;36.88;;;7.60;99.90;;;;;;4879359;29;20429;-90
2023/04/17 04:36:48;;;;;;;129.10;33.97;;;7.90;99.90;;;;;;4879212;29;20503;-91
2023/04/17 04:39:19;;;;;;;176.25;36.08;;;7.40;99.90;;;;;;4878678;29;20469;-93
2023/04/17 04:41:51;;;;;;;122.20;36.33;;;7.60;99.90;;;;;;4879615;29;20413;-92
2023/04/17 04:44:18;;;;;;;140.20;36.85;;;7.60;99.90;;;;;;4879343;29;20425;-92
2023/04/17 04:46:44;;;;;;;83.87;35.57;;;7.70;99.90;;;;;;4879157;29;20446;-92
2023/04/17 04:49:10;;;;;;;129.50;35.70;;;7.70;99.90;;;;;;4879914;29;20417;-92
2023/04/17 04:51:37;;;;;;;88.07;34.35;;;8.20;99.90;;;;;;4873661;29;20435;-92
2023/04/17 04:54:03;;;;;;;113.80;34.37;;;7.70;99.90;;;;;;4860539;29;20423;-92
2023/04/17 04:56:29;;;;;;;117.85;33.72;;;7.90;99.90;;;;;;4860150;29;20793;-91
2023/04/17 04:58:55;;;;;;;95.57;34.17;;;7.70;99.90;;;;;;4860638;29;20465;-91
2023/04/17 05:01:21;;;;;;;129.02;33.58;;;7.70;99.90;;;;;;4859791;29;20505;-92
2023/04/17 05:03:47;;;;;;;123.88;34.90;;;7.80;99.90;;;;;;4860183;29;20454;-91
2023/04/17 05:06:13;;;;;;;130.75;33.78;;;7.80;99.90;;;;;;4860259;29;20452;-90
2023/04/17 05:08:41;;;;;;;134.80;35.03;;;7.80;99.90;;;;;;4876483;29;20498;-92
2023/04/17 05:11:07;;;;;;;126.28;33.95;;;7.80;99.90;;;;;;4897957;29;20423;-91
2023/04/17 05:13:33;;;;;;;143.88;31.85;;;7.90;99.90;;;;;;4912467;29;20419;-92
2023/04/17 05:15:59;;;;;;;215.43;34.83;;;7.90;99.90;;;;;;4864264;29;20419;-91
2023/04/17 05:18:25;;;;;;;81.80;31.42;;;7.80;99.90;;;;;;4859698;29;20453;-92
2023/04/17 05:20:51;;;;;;;95.28;31.60;;;7.80;99.90;;;;;;4860315;29;20415;-91
2023/04/17 05:23:21;;;;;;;86.65;32.13;;;7.90;99.90;;;;;;4860525;29;20427;-91
2023/04/17 05:25:48;;;;;;;87.20;32.20;;;8.10;99.90;;;;;;4860517;29;20558;-91
2023/04/17 05:28:14;;;;;;;92.75;30.95;;;7.90;99.90;;;;;;4861006;29;20423;-93
2023/04/17 05:30:40;;;;;;;130.05;34.25;;;8.10;99.90;;;;;;4860542;29;20785;-93
2023/04/17 05:33:06;;;;;;;190.32;35.70;;;8.30;99.90;;;;;;4860783;29;20460;-92
2023/04/17 05:35:32;;;;;;;146.48;33.72;;;8.30;99.90;;;;;;4860039;29;21031;-92
2023/04/17 05:37:57;;;;;;;71.07;31.85;;;7.90;99.90;;;;;;4860319;29;20418;-91
2023/04/17 05:40:23;;;;;;;103.72;34.78;;;8.40;99.90;;;;;;4860402;29;20932;-92
2023/04/17 05:42:49;;;;;;;114.97;34.42;;;8.10;99.90;;;;;;4860216;29;20419;-92
2023/04/17 05:45:16;;;;;;;113.60;33.60;;;8.10;99.90;;;;;;4861107;29;20418;-93
2023/04/17 05:47:42;;;;;;;120.88;35.00;;;8.40;99.90;;;;;;4860028;29;20423;-93
2023/04/17 05:50:08;;;;;;;140.10;36.97;;;8.50;99.90;;;;;;4862946;29;20434;-91
2023/04/17 05:52:35;;;;;;;213.10;39.38;;;8.10;99.90;;;;;;4863252;29;20430;-90
2023/04/17 05:55:01;;;;;;;225.98;39.97;;;7.90;99.90;;;;;;4864146;29;20942;-92
2023/04/17 05:57:27;;;;;;;218.98;40.40;;;8.10;99.90;;;;;;4863286;29;20411;-92
2023/04/17 05:59:52;;;;;;;150.67;38.87;;;8.10;99.90;;;;;;4863060;29;20514;-91
2023/04/17 06:02:18;;;;;;;155.20;39.30;;;8.20;99.90;;;;;;4863848;29;20462;-91
2023/04/17 06:04:44;;;;;;;223.02;42.13;;;8.20;99.90;;;;;;4863191;29;20412;-90
2023/04/17 06:07:10;;;;;;;175.23;40.17;;;8.00;99.90;;;;;;4873653;29;20448;-92
2023/04/17 06:09:37;;;;;;;152.55;39.13;;;7.70;99.90;;;;;;4881563;29;20413;-93
2023/04/17 06:12:06;;;;;;;104.32;37.35;;;7.80;99.90;;;;;;4882141;29;20505;-93
2023/04/17 06:14:32;;;;;;;167.45;38.83;;;7.90;99.90;;;;;;4881205;29;20456;-92
2023/04/17 06:16:57;;;;;;;127.55;34.50;;;8.10;99.90;;;;;;4881574;29;20413;-93
2023/04/17 06:19:23;;;;;;;99.55;35.25;;;8.10;99.90;;;;;;4881717;29;20775;-92
2023/04/17 06:21:49;;;;;;;104.67;33.20;;;8.30;99.90;;;;;;4881941;29;20410;-93
2023/04/17 06:24:15;;;;;;;78.80;32.47;;;8.30;99.90;;;;;;4881949;29;20540;-91
2023/04/17 06:26:41;;;;;;;81.43;32.37;;;8.10;99.90;;;;;;4881498;29;20531;-92
2023/04/17 06:29:07;;;;;;;66.07;29.97;;;8.10;99.90;;;;;;4882368;29;20477;-92
2023/04/17 06:31:33;;;;;;;75.40;30.45;;;8.10;99.90;;;;;;4881471;29;20512;-92
2023/04/17 06:33:59;;;;;;;60.40;29.75;;;8.50;99.90;;;;;;4881557;29;20489;-93
2023/04/17 06:36:26;;;;;;;54.33;28.77;;;8.50;99.90;;;;;;4881143;29;20453;-91
2023/04/17 06:38:51;;;;;;;59.72;28.20;;;8.50;99.90;;;;;;4881588;29;20448;-92
2023/04/17 06:41:17;;;;;;;58.42;29.15;;;8.50;99.90;;;;;;4881271;29;20782;-90
2023/04/17 06:43:43;;;;;;;62.20;29.65;;;8.70;99.90;;;;;;4880481;29;20408;-90
2023/04/17 06:46:09;;;;;;;61.78;29.15;;;8.70;99.90;;;;;;4881810;29;20428;-93
2023/04/17 06:48:34;;;;;;;66.18;29.02;;;8.70;99.90;;;;;;4880784;29;20464;-91
2023/04/17 06:51:00;;;;;;;53.23;28.33;;;8.70;99.90;;;;;;4881586;29;20437;-91
2023/04/17 06:53:26;;;;;;;49.30;27.23;;;9.30;99.90;;;;;;4880946;29;20440;-90
2023/04/17 06:55:53;;;;;;;46.37;26.27;;;8.80;99.90;;;;;;4896996;29;20429;-91
2023/04/17 06:58:18;;;;;;;38.75;23.85;;;8.80;99.90;;;;;;4880648;29;20452;-92
2023/04/17 07:00:44;;;;;;;42.73;24.80;;;8.90;99.90;;;;;;4880965;29;20409;-91
2023/04/17 07:03:11;;;;;;;35.13;22.70;;;9.10;99.90;;;;;;4881649;29;20410;-91
2023/04/17 07:05:37;;;;;;;30.40;21.38;;;8.80;99.90;;;;;;4881104;29;20922;-91
2023/04/17 07:08:02;;;;;;;29.95;20.85;;;8.90;99.90;;;;;;4881160;29;20425;-92
2023/04/17 07:10:28;;;;;;;30.47;20.70;;;9.10;99.90;;;;;;4880215;29;20927;-90
2023/04/17 07:12:54;;;;;;;26.60;20.23;;;9.10;99.90;;;;;;4880905;29;20795;-91
2023/04/17 07:15:19;;;;;;;33.80;22.27;;;9.20;99.90;;;;;;4880469;29;20500;-90
2023/04/17 07:17:45;;;;;;;33.08;23.38;;;9.50;99.90;;;;;;4880774;29;20815;-91
2023/04/17 07:20:11;;;;;;;36.10;23.77;;;9.40;99.90;;;;;;4872729;29;20682;-92
2023/04/17 07:22:37;;;;;;;35.97;24.25;;;9.50;99.90;;;;;;4861707;29;20434;-92
2023/04/17 07:25:04;;;;;;;36.22;23.92;;;9.70;99.90;;;;;;4862231;29;20426;-91
2023/04/17 07:27:30;;;;;;;37.42;24.73;;;9.80;99.90;;;;;;4860759;29;20801;-92
2023/04/17 07:29:56;;;;;;;36.13;24.70;;;9.70;99.90;;;;;;4862317;29;20446;-92
2023/04/17 07:32:23;;;;;;;34.92;23.77;;;9.70;99.90;;;;;;4861389;29;20411;-91
2023/04/17 07:34:49;;;;;;;34.47;23.65;;;9.70;99.90;;;;;;4861688;29;20411;-93
2023/04/17 07:37:15;;;;;;;35.47;25.00;;;9.50;99.90;;;;;;4861032;29;20506;-91
2023/04/17 07:39:41;;;;;;;32.07;24.47;;;9.60;99.90;;;;;;4861721;29;20529;-93
2023/04/17 07:42:07;;;;;;;33.63;24.23;;;9.60;99.90;;;;;;4861226;29;20423;-93
2023/04/17 07:44:34;;;;;;;32.80;24.75;;;9.70;99.90;;;;;;4860993;29;20482;-91
2023/04/17 07:47:00;;;;;;;32.38;24.33;;;9.80;99.90;;;;;;4861987;29;20454;-92
2023/04/17 07:49:26;;;;;;;31.75;24.13;;;10.00;99.90;;;;;;4860882;29;20418;-90
2023/04/17 07:51:52;;;;;;;32.67;24.70;;;9.90;99.90;;;;;;4861708;29;20423;-91
2023/04/17 07:54:18;;;;;;;30.65;23.50;;;10.00;99.90;;;;;;4861091;29;20784;-91
2023/04/17 07:56:48;;;;;;;26.97;22.90;;;10.00;99.90;;;;;;4860964;29;20441;-92
2023/04/17 07:59:15;;;;;;;26.88;21.67;;;10.60;99.90;;;;;;4871432;29;20978;-91
2023/04/17 08:01:41;;;;;;;26.13;20.90;;;10.10;99.90;;;;;;4879562;29;20425;-91
2023/04/17 08:04:07;;;;;;;25.20;20.73;;;10.30;99.90;;;;;;4880688;29;20429;-92
2023/04/17 08:06:32;;;;;;;24.83;21.08;;;10.30;99.90;;;;;;4879470;29;20934;-91
2023/04/17 08:09:00;;;;;;;26.75;22.23;;;10.40;99.90;;;;;;4880430;29;20421;-92
2023/04/17 08:11:27;;;;;;;25.20;21.58;;;10.50;99.90;;;;;;4879099;29;20409;-90
2023/04/17 08:13:54;;;;;;;25.83;21.80;;;10.50;99.90;;;;;;4879163;29;20413;-91
2023/04/17 08:16:20;;;;;;;29.13;24.17;;;10.90;99.90;;;;;;4879323;29;20422;-91
2023/04/17 08:18:46;;;;;;;29.50;25.07;;;11.00;99.90;;;;;;4879756;29;20898;-91
2023/04/17 08:21:12;;;;;;;31.87;26.17;;;10.90;99.90;;;;;;4879102;29;20432;-92
2023/04/17 08:23:39;;;;;;;27.40;24.37;;;11.10;99.90;;;;;;4879176;29;20803;-91
2023/04/17 08:26:05;;;;;;;26.52;23.67;;;11.00;99.90;;;;;;4879979;29;20440;-93
2023/04/17 08:28:30;;;;;;;27.08;24.10;;;11.10;99.90;;;;;;4879010;29;20414;-91
2023/04/17 08:30:56;;;;;;;24.53;21.83;;;11.30;99.90;;;;;;4879815;29;20511;-92
2023/04/17 08:33:22;;;;;;;23.90;21.43;;;11.40;99.90;;;;;;4879221;29;20476;-92
2023/04/17 08:35:48;;;;;;;21.98;19.77;;;11.60;99.90;;;;;;4879418;29;20440;-92
2023/04/17 08:38:14;;;;;;;22.35;20.10;;;11.60;99.90;;;;;;4879113;29;20445;-93
2023/04/17 08:40:45;;;;;;;22.88;20.48;;;11.70;99.90;;;;;;4879435;29;20810;-92
2023/04/17 08:43:17;;;;;;;24.23;21.67;;;11.80;99.90;;;;;;4879602;29;20453;-89
2023/04/17 08:45:51;;;;;;;25.90;23.10;;;11.80;99.90;;;;;;4879409;29;20439;-92
2023/04/17 08:48:17;;;;;;;25.05;22.55;;;12.00;99.90;;;;;;4879847;29;20441;-93
2023/04/17 08:50:47;;;;;;;25.50;22.80;;;11.60;99.90;;;;;;4879048;29;20547;-91
2023/04/17 08:53:12;;;;;;;24.75;22.20;;;11.60;99.90;;;;;;4879225;29;20475;-89
2023/04/17 08:55:38;;;;;;;22.80;20.50;;;11.20;99.90;;;;;;4879277;29;20429;-91
2023/04/17 08:58:05;;;;;;;19.98;17.98;;;11.50;99.90;;;;;;4878985;29;20414;-91
2023/04/17 09:00:32;;;;;;;20.67;18.48;;;11.50;99.90;;;;;;4879482;29;20409;-91
2023/04/17 09:03:00;;;;;;;18.60;16.80;;;11.70;99.90;;;;;;4878426;29;20409;-92
2023/04/17 09:05:35;;;;;;;17.73;16.02;;;11.90;99.90;;;;;;4879631;29;20830;-91
2023/04/17 09:08:16;;;;;;;17.48;15.68;;;12.10;99.90;;;;;;4878830;29;20427;-91
2023/04/17 09:10:50;;;;;;;18.00;16.20;;;12.30;99.90;;;;;;4879130;29;20496;-90
2023/04/17 09:13:24;;;;;;;16.08;14.45;;;12.60;99.90;;;;;;4879531;29;20476;-91
2023/04/17 09:16:04;;;;;;;16.33;14.70;;;12.80;99.90;;;;;;4878264;29;20460;-92
2023/04/17 09:18:32;;;;;;;15.85;14.35;;;13.00;99.90;;;;;;4879559;29;20446;-92
2023/04/17 09:20:59;;;;;;;16.07;14.47;;;13.20;99.90;;;;;;4878372;29;20457;-92
2023/04/17 09:23:27;;;;;;;15.52;14.10;;;13.20;99.90;;;;;;4880306;29;20417;-91
2023/04/17 09:26:10;;;;;;;16.20;14.60;;;13.10;99.90;;;;;;4882646;29;20502;-91
2023/04/17 09:28:40;;;;;;;16.75;14.98;;;13.10;99.90;;;;;;4882203;29;20425;-91
2023/04/17 09:31:25;;;;;;;17.47;15.77;;;13.40;99.90;;;;;;4883468;29;20414;-92
2023/04/17 09:34:11;;;;;;;17.63;15.93;;;13.70;99.90;;;;;;4882038;29;20413;-93
2023/04/17 09:36:42;;;;;;;18.25;16.55;;;13.70;99.90;;;;;;4883084;29;20432;-91
2023/04/17 09:39:23;;;;;;;19.20;17.40;;;13.40;99.90;;;;;;4882584;29;20465;-92
2023/04/17 09:41:49;;;;;;;18.52;16.85;;;13.50;99.90;;;;;;4882117;29;20417;-92
2023/04/17 09:44:26;;;;;;;18.65;17.00;;;13.30;99.90;;;;;;4882028;29;20428;-92
2023/04/17 09:46:52;;;;;;;18.87;17.07;;;13.40;99.90;;;;;;4880571;29;20461;-92
2023/04/17 09:49:36;;;;;;;18.70;17.00;;;13.60;99.90;;;;;;4881647;29;20432;-93
2023/04/17 09:52:02;;;;;;;16.23;14.73;;;14.30;99.90;;;;;;4881411;29;20505;-91
2023/04/17 09:54:32;;;;;;;14.43;13.10;;;14.90;99.90;;;;;;4881246;29;20405;-92
2023/04/17 09:56:58;;;;;;;14.53;13.23;;;15.20;99.90;;;;;;4882518;29;20417;-91
2023/04/17 09:59:24;;;;;;;14.00;12.70;;;15.30;99.90;;;;;;4881026;29;20500;-91
2023/04/17 10:01:52;;;;;;;13.80;12.50;;;14.90;99.90;;;;;;4882048;29;20922;-92
2023/04/17 10:04:18;;;;;;;13.90;12.60;;;14.90;99.90;;;;;;4879666;29;20440;-93
2023/04/17 10:06:45;;;;;;;13.32;12.13;;;15.00;99.90;;;;;;4881962;29;20756;-94
2023/04/17 10:09:10;;;;;;;13.48;12.23;;;15.00;99.90;;;;;;4881776;29;20409;-90
2023/04/17 10:11:46;;;;;;;12.50;11.30;;;14.70;99.90;;;;;;4881306;29;20416;-91
2023/04/17 10:14:21;;;;;;;12.63;11.47;;;14.70;99.90;;;;;;4881761;29;20468;-91
2023/04/17 10:16:47;;;;;;;12.68;11.48;;;14.80;99.90;;;;;;4877033;29;20433;-93
2023/04/17 10:19:30;;;;;;;12.68;11.55;;;14.90;99.90;;;;;;4862547;29;20446;-93
2023/04/17 10:22:14;;;;;;;12.65;11.45;;;15.00;99.90;;;;;;4878250;29;20462;-90
2023/04/17 10:25:12;;;;;;;12.93;11.68;;;15.20;99.90;;;;;;4862961;29;20429;-91
2023/04/17 10:27:38;;;;;;;11.88;10.88;;;15.70;99.90;;;;;;4855389;29;20458;-91
2023/04/17 10:30:06;;;;;;;12.43;11.23;;;16.60;99.90;;;;;;4862697;29;20427;-93
2023/04/17 10:32:33;;;;;;;11.82;10.82;;;16.80;99.90;;;;;;4862950;29;20863;-91
2023/04/17 10:34:59;;;;;;;11.45;10.43;;;17.40;99.90;;;;;;4861530;29;20825;-91
2023/04/17 10:37:47;;;;;;;11.80;10.80;;;17.50;93.10;;;;;;4862363;29;20514;-91
2023/04/17 10:40:20;;;;;;;12.45;11.35;;;17.20;98.20;;;;;;4862904;29;20446;-92
2023/04/17 10:43:11;;;;;;;12.13;11.02;;;17.40;99.90;;;;;;4877664;29;20776;-89
2023/04/17 10:45:56;;;;;;;11.73;10.52;;;17.60;99.90;;;;;;4878218;29;20522;-92
2023/04/17 10:48:40;;;;;;;10.65;9.65;;;18.20;99.90;;;;;;4862549;29;21076;-91
2023/04/17 10:51:25;;;;;;;10.95;9.88;;;18.30;88.40;;;;;;4861966;29;21349;-93
2023/04/17 10:54:04;;;;;;;10.50;9.50;;;18.20;80.10;;;;;;4862482;29;20423;-92
2023/04/17 10:56:47;;;;;;;11.60;10.50;;;18.50;98.90;;;;;;4861450;29;20455;-91
2023/04/17 10:59:21;;;;;;;10.80;9.85;;;18.80;90.60;;;;;;4862024;29;20824;-91
2023/04/17 11:01:47;;;;;;;11.00;10.02;;;19.00;82.10;;;;;;4862633;29;20431;-92
2023/04/17 11:04:29;;;;;;;11.37;10.37;;;19.30;87.80;;;;;;4862399;29;20837;-92
2023/04/17 11:06:55;;;;;;;11.23;10.23;;;19.50;84.40;;;;;;4862488;29;20808;-92
2023/04/17 11:09:22;;;;;;;11.93;10.73;;;19.80;75.90;;;;;;4861664;29;20419;-92
2023/04/17 11:11:48;;;;;;;12.90;11.50;;;19.80;68.90;;;;;;4871555;29;20477;-92
2023/04/17 11:14:21;;;;;;;12.50;11.50;;;19.50;69.30;;;;;;4868929;29;20426;-91
2023/04/17 11:16:49;;;;;;;12.20;11.20;;;19.30;78.80;;;;;;4876224;29;20456;-92
2023/04/17 11:19:18;;;;;;;13.90;12.60;;;19.20;78.70;;;;;;4893125;29;20447;-93
2023/04/17 11:21:46;;;;;;;12.57;11.33;;;19.10;81.00;;;;;;4861152;29;20920;-90
2023/04/17 11:24:12;;;;;;;12.85;11.75;;;19.10;88.20;;;;;;4862057;29;20427;-90
2023/04/17 11:26:45;;;;;;;12.87;11.67;;;19.20;76.90;;;;;;4861454;29;20474;-91
2023/04/17 11:29:15;;;;;;;13.18;11.88;;;19.40;81.50;;;;;;4861705;29;20422;-92
2023/04/17 11:31:41;;;;;;;13.18;11.98;;;19.60;87.10;;;;;;4861558;29;20427;-91
2023/04/17 11:34:08;;;;;;;14.30;13.00;;;19.90;88.00;;;;;;4861184;29;20419;-89
2023/04/17 11:36:34;;;;;;;14.75;13.45;;;20.40;72.50;;;;;;4861851;29;20784;-91
2023/04/17 11:39:00;;;;;;;15.00;13.70;;;20.70;72.20;;;;;;4861054;29;20450;-91
2023/04/17 11:41:39;;;;;;;14.43;13.03;;;20.60;64.60;;;;;;4876970;29;20422;-90
2023/04/17 11:44:08;;;;;;;14.10;12.70;;;20.50;67.40;;;;;;4876447;29;20453;-91
2023/04/17 11:46:35;;;;;;;13.10;11.90;;;20.60;72.60;;;;;;4861250;29;20439;-91
2023/04/17 11:49:05;;;;;;;13.80;12.50;;;20.30;65.70;;;;;;4876634;29;20479;-91
2023/04/17 11:51:31;;;;;;;16.20;14.70;;;20.40;67.20;;;;;;4860954;29;20430;-91
2023/04/17 11:53:58;;;;;;;16.55;15.05;;;20.20;67.20;;;;;;4860837;29;20483;-90
2023/04/17 11:56:27;;;;;;;17.42;15.93;;;20.30;66.90;;;;;;4859698;29;20479;-91
2023/04/17 11:58:56;;;;;;;16.63;14.95;;;20.10;69.50;;;;;;4860674;29;20533;-92
2023/04/17 12:01:27;;;;;;;17.20;15.60;;;20.40;68.30;;;;;;4859354;29;20438;-94
2023/04/17 12:03:54;;;;;;;16.98;15.48;;;20.70;72.90;;;;;;4860175;29;20431;-93
2023/04/17 12:06:21;;;;;;;16.63;15.13;;;21.00;68.10;;;;;;4860018;29;20435;-91
2023/04/17 12:08:52;;;;;;;17.23;15.73;;;21.40;64.40;;;;;;4875163;29;20895;-94
2023/04/17 12:11:34;;;;;;;17.40;15.88;;;21.50;62.20;;;;;;4876107;29;20426;-92
2023/04/17 12:14:01;;;;;;;16.48;15.07;;;22.00;61.70;;;;;;4874430;29;21074;-94
2023/04/17 12:16:28;;;;;;;16.70;15.20;;;22.20;59.00;;;;;;4860622;29;20407;-90
2023/04/17 12:18:55;;;;;;;17.15;15.65;;;22.20;60.70;;;;;;4860049;29;20474;-92
2023/04/17 12:21:22;;;;;;;16.98;15.57;;;22.20;57.60;;;;;;4860638;29;20494;-90
2023/04/17 12:23:49;;;;;;;17.50;15.90;;;22.30;59.10;;;;;;4859365;29;20404;-93
2023/04/17 12:26:15;;;;;;;17.73;16.13;;;22.80;57.90;;;;;;4859339;29;20411;-92
2023/04/17 12:28:41;;;;;;;17.10;15.60;;;22.70;57.60;;;;;;4860885;29;20450;-93
2023/04/17 12:31:07;;;;;;;17.63;15.93;;;22.90;57.70;;;;;;4859404;29;20734;-93
2023/04/17 12:33:32;;;;;;;17.48;15.98;;;23.00;56.50;;;;;;4860169;29;20426;-91